Airport View

Enter AWOS ICAO identifier for current METAR.

ex. KFNL

KOJA 191255Z AUTO 34005KT 10SM CLR 13/11 A2991 RMK AO2

19 May 2019 13:06

Frequency: 118.575

Phone: 580-772-7020

Other Area AWOS: KCLK - KJWG - KCSM - KRQO

TAF KCSM 191123Z 1912/2012 33010KT P6SM SKC FM191600 04009KT P6SM FEW250 FM192100 11012KT P6SM BKN250 FM200900 11013G18KT P6SM BKN025